Time;durP1;ratioP1;P1;durP2;ratioP2;P2;SDS_P1;SDS_P2;PMS_P1;PMS_P2;Temp;Humidity;BMP_temperature;BMP_pressure;BME280_temperature;BME280_humidity;BME280_pressure;Samples;Min_cycle;Max_cycle;Signal;HPM_P1;HPM_P2
2022/03/08 00:02:06;;;;;;;;;;;;;;;-0.59;100.00;102275.13;5270381;28;19918;-62
2022/03/08 00:04:36;;;;;;;;;;;;;;;-0.63;100.00;102273.75;5270407;28;20328;-63
2022/03/08 00:07:07;;;;;;;;;;;;;;;-0.75;100.00;102266.97;5289142;28;19912;-62
2022/03/08 00:09:37;;;;;;;;;;;;;;;-0.85;100.00;102269.66;5270382;28;19959;-62
2022/03/08 00:12:08;;;;;;;;;;;;;;;-0.92;100.00;102268.59;5272812;28;19912;-61
2022/03/08 00:14:38;;;;;;;;;;;;;;;-0.98;100.00;102258.56;5274477;28;19912;-61
2022/03/08 00:17:08;;;;;;;;;;;;;;;-0.97;100.00;102252.28;5274684;28;20302;-62
2022/03/08 00:19:39;;;;;;;;;;;;;;;-0.97;100.00;102260.25;5292735;28;19920;-61
2022/03/08 00:22:09;;;;;;;;;;;;;;;-0.93;100.00;102258.13;5274351;28;19918;-62
2022/03/08 00:24:39;;;;;;;;;;;;;;;-0.93;100.00;102253.66;5274262;28;19937;-62
2022/03/08 00:27:10;;;;;;;;;;;;;;;-0.90;100.00;102260.50;5274592;28;20287;-62
2022/03/08 00:29:40;;;;;;;;;;;;;;;-0.91;100.00;102257.00;5274479;28;19919;-61
2022/03/08 00:32:10;;;;;;;;;;;;;;;-0.93;100.00;102263.44;5274121;28;19920;-61
2022/03/08 00:34:41;;;;;;;;;;;;;;;-0.92;100.00;102263.28;5292222;28;19918;-61
2022/03/08 00:37:11;;;;;;;;;;;;;;;-0.96;100.00;102264.56;5274305;28;19912;-62
2022/03/08 00:39:42;;;;;;;;;;;;;;;-1.05;100.00;102266.25;5274145;28;19968;-61
2022/03/08 00:42:12;;;;;;;;;;;;;;;-1.06;100.00;102269.06;5274077;28;19919;-61
2022/03/08 00:44:43;;;;;;;;;;;;;;;-1.08;100.00;102260.41;5273873;28;20003;-62
2022/03/08 00:47:13;;;;;;;;;;;;;;;-1.07;100.00;102265.56;5273970;28;19994;-61
2022/03/08 00:49:43;;;;;;;;;;;;;;;-1.08;100.00;102263.91;5292249;28;19912;-61
2022/03/08 00:52:13;;;;;;;;;;;;;;;-1.10;100.00;102262.38;5273954;28;20341;-61
2022/03/08 00:54:44;;;;;;;;;;;;;;;-1.04;100.00;102261.78;5273821;28;19912;-62
2022/03/08 00:57:14;;;;;;;;;;;;;;;-1.02;100.00;102265.13;5291803;28;19912;-60
2022/03/08 00:59:45;;;;;;;;;;;;;;;-1.05;100.00;102257.47;5273900;28;19912;-62
2022/03/08 01:02:15;;;;;;;;;;;;;;;-1.09;100.00;102262.22;5273670;28;20380;-61
2022/03/08 01:04:45;;;;;;;;;;;;;;;-1.12;100.00;102261.69;5273461;28;19912;-60
2022/03/08 01:07:16;;;;;;;;;;;;;;;-1.13;100.00;102255.53;5273813;28;19912;-61
2022/03/08 01:09:46;;;;;;;;;;;;;;;-1.13;100.00;102252.06;5273544;28;19938;-61
2022/03/08 01:12:17;;;;;;;;;;;;;;;-1.14;100.00;102253.88;5273669;28;19912;-61
2022/03/08 01:14:47;;;;;;;;;;;;;;;-1.12;100.00;102248.44;5273295;28;19911;-61
2022/03/08 01:17:17;;;;;;;;;;;;;;;-1.10;100.00;102262.38;5273513;28;19916;-61
2022/03/08 01:19:48;;;;;;;;;;;;;;;-1.06;100.00;102247.84;5291861;28;19911;-62
2022/03/08 01:22:18;;;;;;;;;;;;;;;-1.09;100.00;102250.78;5273021;28;20283;-61
2022/03/08 01:24:48;;;;;;;;;;;;;;;-1.13;100.00;102250.25;5272963;28;20418;-61
2022/03/08 01:27:19;;;;;;;;;;;;;;;-1.17;100.00;102248.06;5273252;28;19941;-62
2022/03/08 01:29:49;;;;;;;;;;;;;;;-1.22;100.00;102245.81;5273644;28;19999;-61
2022/03/08 01:32:19;;;;;;;;;;;;;;;-1.22;100.00;102239.69;5272984;28;19988;-61
2022/03/08 01:34:49;;;;;;;;;;;;;;;-1.22;100.00;102231.75;5273057;28;19912;-62
2022/03/08 01:37:20;;;;;;;;;;;;;;;-1.17;100.00;102234.78;5273460;28;20387;-61
2022/03/08 01:39:50;;;;;;;;;;;;;;;-1.16;100.00;102228.50;5272931;28;19912;-68
2022/03/08 01:42:22;;;;;;;;;;;;;;;-1.17;100.00;102224.19;5272977;28;19968;-61
2022/03/08 01:44:53;;;;;;;;;;;;;;;-1.22;100.00;102224.63;5272771;28;19957;-61
2022/03/08 01:47:24;;;;;;;;;;;;;;;-1.25;100.00;102219.63;5272986;28;19955;-61
2022/03/08 01:49:54;;;;;;;;;;;;;;;-1.28;100.00;102213.75;5272732;28;19912;-61
2022/03/08 01:52:25;;;;;;;;;;;;;;;-1.27;100.00;102216.28;5272835;28;19912;-61
2022/03/08 01:54:56;;;;;;;;;;;;;;;-1.27;100.00;102210.97;5272578;28;19934;-61
2022/03/08 01:57:26;;;;;;;;;;;;;;;-1.29;100.00;102201.50;5272727;28;19916;-61
2022/03/08 01:59:56;;;;;;;;;;;;;;;-1.32;100.00;102210.56;5272816;28;19943;-61
2022/03/08 02:02:27;;;;;;;;;;;;;;;-1.33;100.00;102198.28;5272475;28;19916;-62
2022/03/08 02:04:57;;;;;;;;;;;;;;;-1.36;100.00;102196.78;5272199;28;19916;-61
2022/03/08 02:07:27;;;;;;;;;;;;;;;-1.34;100.00;102195.78;5272618;28;20295;-61
2022/03/08 02:09:58;;;;;;;;;;;;;;;-1.33;100.00;102200.94;5290842;28;19918;-61
2022/03/08 02:12:29;;;;;;;;;;;;;;;-1.38;100.00;102197.91;5290702;28;19922;-61
2022/03/08 02:15:09;;;;;;;;;;;;;;;-1.44;100.00;102194.00;5272103;28;20371;-61
2022/03/08 02:17:40;;;;;;;;;;;;;;;-1.52;100.00;102204.50;5272254;28;19916;-61
2022/03/08 02:20:11;;;;;;;;;;;;;;;-1.65;100.00;102206.63;5290540;28;20321;-61
2022/03/08 02:22:42;;;;;;;;;;;;;;;-1.72;100.00;102202.88;5272296;28;20378;-59
2022/03/08 02:25:13;;;;;;;;;;;;;;;-1.81;100.00;102196.63;5271884;28;19978;-61
2022/03/08 02:27:44;;;;;;;;;;;;;;;-1.86;100.00;102192.75;5272131;28;20294;-61
2022/03/08 02:30:15;;;;;;;;;;;;;;;-1.83;100.00;102198.59;5290344;28;19947;-61
2022/03/08 02:32:46;;;;;;;;;;;;;;;-1.77;100.00;102197.19;5271836;28;19915;-61
2022/03/08 02:35:19;;;;;;;;;;;;;;;-1.73;100.00;102185.31;5289509;28;19912;-61
2022/03/08 02:37:52;;;;;;;;;;;;;;;-1.72;100.00;102184.34;5272000;28;20203;-61
2022/03/08 02:40:25;;;;;;;;;;;;;;;-1.79;100.00;102181.44;5271888;28;19915;-61
2022/03/08 02:42:56;;;;;;;;;;;;;;;-1.87;100.00;102181.31;5289952;28;20380;-61
2022/03/08 02:45:26;;;;;;;;;;;;;;;-1.93;100.00;102186.34;5271345;28;20007;-61
2022/03/08 02:47:56;;;;;;;;;;;;;;;-1.93;100.00;102187.16;5271578;28;19935;-62
2022/03/08 02:50:27;;;;;;;;;;;;;;;-1.92;100.00;102182.72;5271555;28;19919;-61
2022/03/08 02:52:57;;;;;;;;;;;;;;;-1.90;100.00;102181.59;5289598;28;19938;-60
2022/03/08 02:55:29;;;;;;;;;;;;;;;-1.84;100.00;102174.91;5271349;28;19947;-60
2022/03/08 02:58:00;;;;;;;;;;;;;;;-1.81;100.00;102161.38;5271400;28;19916;-60
2022/03/08 03:00:31;;;;;;;;;;;;;;;-1.76;100.00;102157.31;5271452;28;19918;-62
2022/03/08 03:03:02;;;;;;;;;;;;;;;-1.71;100.00;102159.53;5271282;28;19917;-61
2022/03/08 03:05:33;;;;;;;;;;;;;;;-1.70;100.00;102153.25;5271310;28;20383;-61
2022/03/08 03:08:05;;;;;;;;;;;;;;;-1.73;100.00;102145.59;5271390;28;19912;-61
2022/03/08 03:10:35;;;;;;;;;;;;;;;-1.72;100.00;102141.97;5289601;28;20049;-61
2022/03/08 03:13:06;;;;;;;;;;;;;;;-1.74;100.00;102138.66;5271067;28;19994;-61
2022/03/08 03:15:36;;;;;;;;;;;;;;;-1.73;100.00;102142.94;5289286;28;19915;-61
2022/03/08 03:18:10;;;;;;;;;;;;;;;-1.74;100.00;102144.78;5271307;28;19911;-61
2022/03/08 03:20:41;;;;;;;;;;;;;;;-1.72;100.00;102140.16;5271009;28;19918;-61
2022/03/08 03:23:11;;;;;;;;;;;;;;;-1.71;100.00;102140.97;5270826;28;19915;-62
2022/03/08 03:25:41;;;;;;;;;;;;;;;-1.71;100.00;102133.03;5270788;28;19976;-61
2022/03/08 03:28:12;;;;;;;;;;;;;;;-1.67;100.00;102131.78;5289210;28;19916;-62
2022/03/08 03:30:42;;;;;;;;;;;;;;;-1.65;100.00;102140.41;5270925;28;20007;-61
2022/03/08 03:33:12;;;;;;;;;;;;;;;-1.62;100.00;102129.53;5291727;22;19939;-77
2022/03/08 03:35:42;;;;;;;;;;;;;;;-1.65;100.00;102124.53;5303024;28;19942;-80
2022/03/08 03:38:13;;;;;;;;;;;;;;;-1.62;100.00;102123.41;5307657;28;19912;-82
2022/03/08 03:40:43;;;;;;;;;;;;;;;-1.70;100.00;102122.31;5309733;28;19923;-81
2022/03/08 03:43:13;;;;;;;;;;;;;;;-1.71;100.00;102122.44;5309364;28;19976;-79
2022/03/08 03:45:48;;;;;;;;;;;;;;;-1.73;100.00;102119.94;5309013;28;19911;-79
2022/03/08 03:48:19;;;;;;;;;;;;;;;-1.78;100.00;102113.44;5309762;28;19974;-80
2022/03/08 03:50:49;;;;;;;;;;;;;;;-1.78;100.00;102116.91;5309838;28;19923;-81
2022/03/08 03:53:19;;;;;;;;;;;;;;;-1.81;100.00;102116.38;5310361;28;19983;-81
2022/03/08 03:55:50;;;;;;;;;;;;;;;-1.77;100.00;102112.47;5309942;28;19966;-80
2022/03/08 03:58:20;;;;;;;;;;;;;;;-1.77;100.00;102109.81;5308498;28;19916;-81
2022/03/08 04:00:50;;;;;;;;;;;;;;;-2.55;100.00;101979.53;5309335;28;19916;-80
2022/03/08 04:03:21;;;;;;;;;;;;;;;-1.77;100.00;102115.94;5308710;28;19920;-80
2022/03/08 04:05:51;;;;;;;;;;;;;;;-1.83;100.00;102110.38;5297176;28;20439;-81
2022/03/08 04:08:22;;;;;;;;;;;;;;;-1.84;100.00;102106.91;5277467;28;19934;-82
2022/03/08 04:10:52;;;;;;;;;;;;;;;-1.85;100.00;102102.59;5277187;28;19912;-82
2022/03/08 04:13:22;;;;;;;;;;;;;;;-1.85;100.00;102107.03;5277566;28;20046;-82
2022/03/08 04:15:53;;;;;;;;;;;;;;;-1.88;100.00;102104.69;5295725;28;19919;-82
2022/03/08 04:18:23;;;;;;;;;;;;;;;-1.95;100.00;102103.59;5295428;28;19912;-82
2022/03/08 04:20:53;;;;;;;;;;;;;;;-2.07;100.00;102101.13;5276801;28;19912;-83
2022/03/08 04:23:24;;;;;;;;;;;;;;;-2.17;100.00;102097.66;5276242;28;19916;-82
2022/03/08 04:25:54;;;;;;;;;;;;;;;-2.12;100.00;102097.22;5295240;28;19915;-80
2022/03/08 04:28:24;;;;;;;;;;;;;;;-2.07;100.00;102093.19;5277333;28;19912;-80
2022/03/08 04:30:54;;;;;;;;;;;;;;;-2.05;100.00;102091.22;5295232;28;20443;-81
2022/03/08 04:33:25;;;;;;;;;;;;;;;-2.05;100.00;102091.22;5294888;28;20006;-82
2022/03/08 04:35:55;;;;;;;;;;;;;;;-2.05;100.00;102083.28;5276767;28;19947;-82
2022/03/08 04:38:25;;;;;;;;;;;;;;;-2.02;100.00;102086.63;5295773;28;20456;-83
2022/03/08 04:40:55;;;;;;;;;;;;;;;-2.02;100.00;102083.97;5295143;28;19935;-83
2022/03/08 04:43:26;;;;;;;;;;;;;;;-1.99;100.00;102078.38;5294704;28;19926;-82
2022/03/08 04:45:56;;;;;;;;;;;;;;;-2.01;100.00;102077.69;5295702;28;19912;-83
2022/03/08 04:48:26;;;;;;;;;;;;;;;-2.03;100.00;102074.38;5293893;28;19912;-82
2022/03/08 04:50:57;;;;;;;;;;;;;;;-2.07;100.00;102074.66;5275758;28;19912;-82
2022/03/08 04:53:27;;;;;;;;;;;;;;;-2.08;100.00;102074.78;5277266;28;19918;-82
2022/03/08 04:55:57;;;;;;;;;;;;;;;-2.11;100.00;102072.44;5296348;28;19912;-82
2022/03/08 04:58:27;;;;;;;;;;;;;;;-2.11;100.00;102073.28;5299842;28;19912;-81
2022/03/08 05:00:58;;;;;;;;;;;;;;;-2.13;100.00;102077.03;5282037;28;20273;-79
2022/03/08 05:03:28;;;;;;;;;;;;;;;-2.12;100.00;102074.25;5281662;28;19915;-79
2022/03/08 05:05:58;;;;;;;;;;;;;;;-2.12;100.00;102076.91;5300106;28;20038;-80
2022/03/08 05:08:29;;;;;;;;;;;;;;;-2.20;100.00;102075.94;5299856;28;20002;-80
2022/03/08 05:11:01;;;;;;;;;;;;;;;-2.28;100.00;102074.00;5298932;28;20387;-81
2022/03/08 05:13:32;;;;;;;;;;;;;;;-2.17;100.00;102075.66;5299535;28;19951;-82
2022/03/08 05:16:02;;;;;;;;;;;;;;;-2.12;100.00;102079.53;5299366;28;19912;-81
2022/03/08 05:18:32;;;;;;;;;;;;;;;-2.17;100.00;102079.13;5300436;28;19975;-81
2022/03/08 05:21:03;;;;;;;;;;;;;;;-2.25;100.00;102076.34;5300310;28;19912;-82
2022/03/08 05:23:33;;;;;;;;;;;;;;;-2.31;100.00;102074.28;5299144;28;19931;-80
2022/03/08 05:26:04;;;;;;;;;;;;;;;-2.24;100.00;102082.47;5299741;28;19996;-80
2022/03/08 05:28:35;;;;;;;;;;;;;;;-2.28;100.00;102074.00;5281792;28;20000;-82
2022/03/08 05:31:06;;;;;;;;;;;;;;;-2.25;100.00;102060.47;5299841;28;19912;-80
2022/03/08 05:33:36;;;;;;;;;;;;;;;-2.28;100.00;102063.41;5297970;28;19922;-79
2022/03/08 05:36:06;;;;;;;;;;;;;;;-2.33;100.00;102070.13;5297337;28;20277;-82
2022/03/08 05:38:36;;;;;;;;;;;;;;;-2.38;100.00;102071.38;5296563;28;19975;-80
2022/03/08 05:41:07;;;;;;;;;;;;;;;-2.44;100.00;102065.81;5297821;28;19918;-80
2022/03/08 05:43:37;;;;;;;;;;;;;;;-2.51;100.00;102068.19;5297955;28;19960;-80
2022/03/08 05:46:08;;;;;;;;;;;;;;;-2.47;100.00;102060.81;5299418;28;19918;-82
2022/03/08 05:48:38;;;;;;;;;;;;;;;-2.48;100.00;102059.13;5281932;28;19911;-81
2022/03/08 05:51:09;;;;;;;;;;;;;;;-2.46;100.00;102065.97;5299015;28;19918;-80
2022/03/08 05:53:39;;;;;;;;;;;;;;;-2.39;100.00;102063.59;5281934;28;19920;-81
2022/03/08 05:56:10;;;;;;;;;;;;;;;-2.35;100.00;102043.81;5300709;28;19942;-81
2022/03/08 05:58:41;;;;;;;;;;;;;;;-2.32;100.00;102045.34;5279644;28;19922;-81
2022/03/08 06:01:11;;;;;;;;;;;;;;;-2.30;100.00;102044.19;5280326;28;19947;-81
2022/03/08 06:03:41;;;;;;;;;;;;;;;-2.33;100.00;102039.22;5299032;28;19916;-81
2022/03/08 06:06:12;;;;;;;;;;;;;;;-2.35;100.00;102032.41;5298475;28;19911;-81
2022/03/08 06:08:42;;;;;;;;;;;;;;;-2.34;100.00;102037.56;5298083;28;20403;-81
2022/03/08 06:11:13;;;;;;;;;;;;;;;-2.36;100.00;102036.84;5296161;28;20280;-80
2022/03/08 06:13:43;;;;;;;;;;;;;;;-2.41;100.00;102037.28;5294414;28;20286;-81
2022/03/08 06:16:13;;;;;;;;;;;;;;;-2.43;100.00;102041.03;5295006;28;19912;-81
2022/03/08 06:18:44;;;;;;;;;;;;;;;-2.44;100.00;102044.66;5294696;28;19956;-80
2022/03/08 06:21:14;;;;;;;;;;;;;;;-2.39;100.00;102061.78;5293375;28;19912;-84
2022/03/08 06:23:44;;;;;;;;;;;;;;;-2.39;100.00;102037.13;5293470;28;19922;-85
2022/03/08 06:26:14;;;;;;;;;;;;;;;-2.41;100.00;102047.84;5275834;28;19912;-86
2022/03/08 06:28:45;;;;;;;;;;;;;;;-2.42;100.00;102050.66;5293984;28;19919;-83
2022/03/08 06:31:15;;;;;;;;;;;;;;;-2.45;100.00;102053.56;5294072;28;19975;-83
2022/03/08 06:33:45;;;;;;;;;;;;;;;-2.41;100.00;102047.03;5293684;28;19923;-82
2022/03/08 06:36:15;;;;;;;;;;;;;;;-2.31;100.00;102045.16;5275715;28;19916;-82
2022/03/08 06:38:46;;;;;;;;;;;;;;;-2.25;100.00;102041.97;5293679;28;19955;-81
2022/03/08 06:41:16;;;;;;;;;;;;;;;-2.24;100.00;102048.91;5293403;28;19933;-80
2022/03/08 06:43:46;;;;;;;;;;;;;;;-2.15;100.00;102050.72;5293334;28;20383;-82
2022/03/08 06:46:17;;;;;;;;;;;;;;;-2.15;100.00;102053.38;5293836;28;20572;-81
2022/03/08 06:48:47;;;;;;;;;;;;;;;-2.16;100.00;102048.22;5291780;28;20003;-81
2022/03/08 06:51:17;;;;;;;;;;;;;;;-2.12;100.00;102055.72;5293672;28;19912;-81
2022/03/08 06:53:47;;;;;;;;;;;;;;;-2.07;100.00;102061.44;5293709;28;19982;-80
2022/03/08 06:56:18;;;;;;;;;;;;;;;-2.00;100.00;102058.19;5275186;28;19948;-81
2022/03/08 06:58:48;;;;;;;;;;;;;;;-2.40;100.00;101971.97;5275262;28;19912;-81
2022/03/08 07:01:18;;;;;;;;;;;;;;;-1.79;100.00;102057.00;5293049;28;19962;-79
2022/03/08 07:03:49;;;;;;;;;;;;;;;-1.71;100.00;102054.44;5275223;28;19916;-82
2022/03/08 07:06:19;;;;;;;;;;;;;;;-1.69;100.00;102056.94;5293717;28;19916;-80
2022/03/08 07:08:50;;;;;;;;;;;;;;;-1.65;100.00;102055.66;5275166;28;19915;-81
2022/03/08 07:11:20;;;;;;;;;;;;;;;-1.56;100.00;102060.09;5294169;28;19916;-79
2022/03/08 07:13:51;;;;;;;;;;;;;;;-1.51;100.00;102057.84;5274459;28;19918;-80
2022/03/08 07:16:21;;;;;;;;;;;;;;;-1.46;100.00;102054.75;5293590;28;20326;-81
2022/03/08 07:18:51;;;;;;;;;;;;;;;-1.37;100.00;102059.97;5305058;28;19928;-79
2022/03/08 07:21:21;;;;;;;;;;;;;;;-1.28;100.00;102057.41;5314094;28;19907;-80
2022/03/08 07:23:52;;;;;;;;;;;;;;;-1.20;100.00;102057.50;5314076;28;19987;-79
2022/03/08 07:26:22;;;;;;;;;;;;;;;-1.13;100.00;102058.56;5305497;28;19922;-81
2022/03/08 07:28:52;;;;;;;;;;;;;;;-1.07;100.00;102063.25;5296731;28;19912;-80
2022/03/08 07:31:22;;;;;;;;;;;;;;;-1.00;100.00;102061.69;5296677;28;19951;-82
2022/03/08 07:33:53;;;;;;;;;;;;;;;-0.94;100.00;102063.75;5296189;28;19938;-82
2022/03/08 07:36:23;;;;;;;;;;;;;;;-0.87;100.00;102070.13;5297349;28;19911;-83
2022/03/08 07:38:54;;;;;;;;;;;;;;;-0.81;100.00;102066.84;5295089;28;19918;-83
2022/03/08 07:41:24;;;;;;;;;;;;;;;-0.76;100.00;102067.22;5296492;28;19912;-83
2022/03/08 07:43:54;;;;;;;;;;;;;;;-0.64;100.00;102081.09;5294522;28;20026;-80
2022/03/08 07:46:25;;;;;;;;;;;;;;;-0.55;100.00;102066.03;5296241;28;19919;-80
2022/03/08 07:48:55;;;;;;;;;;;;;;;-0.44;100.00;102069.31;5295318;28;20003;-81
2022/03/08 07:51:26;;;;;;;;;;;;;;;-0.36;100.00;102064.06;5294306;28;20006;-80
2022/03/08 07:53:56;;;;;;;;;;;;;;;-0.33;100.00;102068.22;5298306;28;19911;-80
2022/03/08 07:56:26;;;;;;;;;;;;;;;-0.26;100.00;102079.03;5314388;28;19999;-80
2022/03/08 07:58:57;;;;;;;;;;;;;;;-0.18;100.00;102071.97;5314822;28;20003;-82
2022/03/08 08:01:27;;;;;;;;;;;;;;;-0.08;100.00;102077.19;5314244;28;19962;-82
2022/03/08 08:03:57;;;;;;;;;;;;;;;0.02;100.00;102079.72;5287260;28;19965;-83
2022/03/08 08:06:27;;;;;;;;;;;;;;;0.11;100.00;102081.44;5300457;28;19946;-83
2022/03/08 08:08:58;;;;;;;;;;;;;;;0.20;100.00;102086.66;5300361;28;19912;-83
2022/03/08 08:11:28;;;;;;;;;;;;;;;0.32;100.00;102084.53;5298396;28;19911;-81
2022/03/08 08:13:58;;;;;;;;;;;;;;;0.45;100.00;102079.63;5298219;28;19919;-82
2022/03/08 08:16:29;;;;;;;;;;;;;;;0.50;100.00;102085.28;5298827;28;19961;-83
2022/03/08 08:18:59;;;;;;;;;;;;;;;0.61;100.00;102086.81;5297903;28;20006;-83
2022/03/08 08:21:29;;;;;;;;;;;;;;;0.73;100.00;102087.34;5278857;28;19913;-83
2022/03/08 08:24:00;;;;;;;;;;;;;;;0.82;100.00;102086.41;5278434;28;19935;-84
2022/03/08 08:26:31;;;;;;;;;;;;;;;0.89;100.00;102084.72;5296821;28;19916;-83
2022/03/08 08:29:02;;;;;;;;;;;;;;;0.94;100.00;102085.91;5297408;28;19912;-81
2022/03/08 08:31:33;;;;;;;;;;;;;;;1.05;100.00;102079.47;5296780;28;19912;-84
2022/03/08 08:34:03;;;;;;;;;;;;;;;1.15;100.00;102082.81;5301070;28;19919;-84
2022/03/08 08:36:33;;;;;;;;;;;;;;;1.23;100.00;102080.13;5299858;28;19912;-83
2022/03/08 08:39:04;;;;;;;;;;;;;;;1.28;100.00;102074.31;5298903;28;19950;-84
2022/03/08 08:41:34;;;;;;;;;;;;;;;1.28;100.00;102079.66;5279957;28;19977;-83
2022/03/08 08:44:04;;;;;;;;;;;;;;;1.40;100.00;102077.50;5279788;28;19916;-83
2022/03/08 08:46:35;;;;;;;;;;;;;;;1.54;100.00;102076.81;5301889;28;19912;-83
2022/03/08 08:49:05;;;;;;;;;;;;;;;1.65;100.00;102076.50;5304027;28;19947;-83
2022/03/08 08:51:35;;;;;;;;;;;;;;;1.74;100.00;102072.81;5304695;28;20048;-83
2022/03/08 08:54:06;;;;;;;;;;;;;;;1.85;100.00;102077.78;5303721;28;19915;-83
2022/03/08 08:56:37;;;;;;;;;;;;;;;1.96;100.00;102071.28;5304993;28;19915;-83
2022/03/08 08:59:07;;;;;;;;;;;;;;;2.03;100.00;102067.75;5302261;28;19934;-82
2022/03/08 09:01:37;;;;;;;;;;;;;;;2.09;100.00;102070.75;5300842;28;19911;-82
2022/03/08 09:04:08;;;;;;;;;;;;;;;2.26;100.00;102072.38;5300015;28;19916;-82
2022/03/08 09:06:39;;;;;;;;;;;;;;;2.36;100.00;102059.66;5283037;28;20010;-82
2022/03/08 09:09:10;;;;;;;;;;;;;;;2.44;100.00;102064.97;5282043;28;19923;-83
2022/03/08 09:11:41;;;;;;;;;;;;;;;2.62;100.00;102062.88;5281707;28;19916;-83
2022/03/08 09:14:11;;;;;;;;;;;;;;;2.81;100.00;102060.81;5299142;28;19939;-83
2022/03/08 09:16:42;;;;;;;;;;;;;;;2.98;100.00;102049.00;5281809;28;20399;-83
2022/03/08 09:19:13;;;;;;;;;;;;;;;3.20;98.35;102055.34;5281864;28;19965;-84
2022/03/08 09:21:43;;;;;;;;;;;;;;;3.32;96.85;102045.94;5281313;28;19916;-83
2022/03/08 09:24:13;;;;;;;;;;;;;;;3.50;96.04;102038.41;5299553;28;19915;-83
2022/03/08 09:26:44;;;;;;;;;;;;;;;3.70;93.09;102039.59;5281076;28;19911;-83
2022/03/08 09:29:14;;;;;;;;;;;;;;;3.85;89.75;102031.56;5281578;28;19943;-83
2022/03/08 09:34:14;;;;;;;;;;;;;;;4.11;88.60;102022.25;5303915;22;19924;-62
2022/03/08 09:36:45;;;;;;;;;;;;;;;4.25;89.08;102024.94;5259087;28;19922;-61
2022/03/08 09:39:15;;;;;;;;;;;;;;;4.44;86.44;102017.34;5252287;28;20375;-61
2022/03/08 09:41:45;;;;;;;;;;;;;;;4.57;87.82;102023.69;5251266;28;19912;-62
2022/03/08 09:44:16;;;;;;;;;;;;;;;4.69;87.10;102010.66;5230778;28;19916;-62
2022/03/08 09:46:46;;;;;;;;;;;;;;;4.90;84.80;102009.88;5231253;28;19913;-62
2022/03/08 09:49:16;;;;;;;;;;;;;;;5.06;80.28;102012.28;5231066;28;19916;-61
2022/03/08 09:51:47;;;;;;;;;;;;;;;5.11;80.45;102017.88;5247899;28;19912;-64
2022/03/08 09:54:17;;;;;;;;;;;;;;;5.22;76.26;102020.03;5247341;28;20188;-62
2022/03/08 09:56:47;;;;;;;;;;;;;;;5.21;74.58;102015.69;5241540;28;19936;-62
2022/03/08 09:59:18;;;;;;;;;;;;;;;5.24;74.18;102017.16;5250782;28;20007;-62
2022/03/08 10:01:49;;;;;;;;;;;;;;;5.35;74.95;102017.47;5251174;28;20283;-62
2022/03/08 10:04:19;;;;;;;;;;;;;;;5.40;74.84;102016.91;5269070;28;20322;-62
2022/03/08 10:06:50;;;;;;;;;;;;;;;5.54;75.60;102018.66;5251240;28;19912;-62
2022/03/08 10:09:21;;;;;;;;;;;;;;;5.68;75.36;102016.91;5250963;28;19912;-63
2022/03/08 10:11:52;;;;;;;;;;;;;;;5.75;73.70;102009.75;5250867;28;19919;-62
2022/03/08 10:14:27;;;;;;;;;;;;;;;5.86;69.94;102001.16;5250662;28;19916;-62
2022/03/08 10:16:58;;;;;;;;;;;;;;;5.91;69.17;102005.97;5250777;28;20411;-62
2022/03/08 10:19:28;;;;;;;;;;;;;;;5.95;69.36;102004.53;5240658;28;19913;-62
2022/03/08 10:21:58;;;;;;;;;;;;;;;6.07;69.70;102002.94;5209297;28;19913;-62
2022/03/08 10:24:30;;;;;;;;;;;;;;;6.25;68.14;101997.91;5208705;28;19927;-62
2022/03/08 10:27:02;;;;;;;;;;;;;;;6.32;66.50;101997.94;5209378;28;19913;-62
2022/03/08 10:29:34;;;;;;;;;;;;;;;6.39;67.18;101990.72;5208638;28;20456;-62
2022/03/08 10:32:09;;;;;;;;;;;;;;;6.49;65.92;101993.03;5208787;28;20042;-63
2022/03/08 10:34:40;;;;;;;;;;;;;;;6.57;67.10;101984.81;5208660;28;20003;-63
2022/03/08 10:37:16;;;;;;;;;;;;;;;6.76;66.18;101984.84;5208873;28;20095;-62
2022/03/08 10:39:48;;;;;;;;;;;;;;;6.87;65.31;101987.97;5208255;28;19912;-62
2022/03/08 10:42:20;;;;;;;;;;;;;;;6.99;64.96;101986.31;5208817;28;19920;-62
2022/03/08 10:45:11;;;;;;;;;;;;;;;7.11;65.08;101982.00;5225098;28;20034;-62
2022/03/08 10:47:45;;;;;;;;;;;;;;;7.27;64.09;101978.91;5225765;28;19917;-63
2022/03/08 10:50:17;;;;;;;;;;;;;;;7.47;65.79;101975.41;5209743;28;20373;-62
2022/03/08 10:52:49;;;;;;;;;;;;;;;7.26;62.64;101914.63;5221765;28;19912;-62
2022/03/08 10:55:21;;;;;;;;;;;;;;;7.70;61.42;101970.41;5229480;28;19912;-63
2022/03/08 10:57:53;;;;;;;;;;;;;;;7.68;62.13;101961.72;5228890;28;19916;-62
2022/03/08 11:00:23;;;;;;;;;;;;;;;7.75;59.79;101962.53;5227790;28;19932;-62
2022/03/08 11:02:55;;;;;;;;;;;;;;;7.83;60.62;101961.47;5228924;28;20364;-62
2022/03/08 11:05:30;;;;;;;;;;;;;;;7.80;59.79;101957.34;5229199;28;20307;-62
2022/03/08 11:08:00;;;;;;;;;;;;;;;7.97;59.81;101952.34;5229512;28;19912;-62
2022/03/08 11:10:32;;;;;;;;;;;;;;;7.99;59.80;101959.16;5228705;28;19918;-64
2022/03/08 11:13:02;;;;;;;;;;;;;;;7.95;59.18;101959.78;5229282;28;20288;-62
2022/03/08 11:15:35;;;;;;;;;;;;;;;7.95;59.08;101963.31;5246603;28;19916;-62
2022/03/08 11:18:06;;;;;;;;;;;;;;;8.10;60.16;101954.97;5228823;28;19920;-62
2022/03/08 11:20:38;;;;;;;;;;;;;;;8.07;59.67;101955.41;5228598;28;19912;-63
2022/03/08 11:23:09;;;;;;;;;;;;;;;8.19;61.11;101960.94;5245234;28;19920;-63
2022/03/08 11:25:44;;;;;;;;;;;;;;;8.16;59.70;101948.75;5245594;28;20341;-63
2022/03/08 11:28:15;;;;;;;;;;;;;;;8.23;59.51;101948.72;5245754;28;19955;-63
2022/03/08 11:30:50;;;;;;;;;;;;;;;8.30;59.07;101953.03;5245558;28;20032;-63
2022/03/08 11:33:33;;;;;;;;;;;;;;;8.45;59.65;101952.78;5245205;28;20014;-63
2022/03/08 11:36:06;;;;;;;;;;;;;;;8.67;61.21;101945.19;5246733;28;19948;-63
2022/03/08 11:38:37;;;;;;;;;;;;;;;8.66;58.52;101944.34;5245589;28;20062;-63
2022/03/08 11:41:07;;;;;;;;;;;;;;;8.63;57.00;101941.28;5244959;28;20007;-63
2022/03/08 11:43:37;;;;;;;;;;;;;;;8.63;57.97;101931.34;5228246;28;20014;-63
2022/03/08 11:46:21;;;;;;;;;;;;;;;8.74;55.52;101927.13;5245124;28;20102;-63
2022/03/08 11:49:03;;;;;;;;;;;;;;;8.86;57.41;101927.25;5228603;28;19967;-64
2022/03/08 11:51:33;;;;;;;;;;;;;;;9.00;58.21;101924.22;5228642;28;19924;-63
2022/03/08 11:54:08;;;;;;;;;;;;;;;9.02;56.24;101929.41;5228390;28;19981;-65
2022/03/08 11:56:46;;;;;;;;;;;;;;;9.13;52.51;101926.00;5228829;28;20003;-63
2022/03/08 11:59:17;;;;;;;;;;;;;;;9.10;53.84;101921.06;5228732;28;20007;-63
2022/03/08 12:01:47;;;;;;;;;;;;;;;9.18;54.04;101918.09;5246479;28;19912;-62
2022/03/08 12:04:19;;;;;;;;;;;;;;;9.14;53.80;101916.88;5244857;28;20054;-62
2022/03/08 12:06:56;;;;;;;;;;;;;;;9.13;53.84;101909.84;5228260;28;20428;-62
2022/03/08 12:09:26;;;;;;;;;;;;;;;9.23;53.48;101906.66;5232872;28;20343;-62
2022/03/08 12:11:56;;;;;;;;;;;;;;;9.46;55.73;101904.13;5232754;28;19916;-62
2022/03/08 12:14:31;;;;;;;;;;;;;;;9.59;54.28;101900.47;5250039;28;20238;-62
2022/03/08 12:17:12;;;;;;;;;;;;;;;9.71;54.04;101901.38;5232516;28;20284;-62
2022/03/08 12:19:43;;;;;;;;;;;;;;;9.54;50.67;101901.13;5232666;28;20292;-61
2022/03/08 12:22:14;;;;;;;;;;;;;;;9.51;51.58;101892.69;5232812;28;20364;-62
2022/03/08 12:24:46;;;;;;;;;;;;;;;9.54;52.41;101892.22;5232416;28;19923;-62
2022/03/08 12:27:17;;;;;;;;;;;;;;;9.46;50.58;101891.47;5232231;28;19944;-62
2022/03/08 12:29:54;;;;;;;;;;;;;;;9.57;50.47;101889.06;5232127;28;20281;-62
2022/03/08 12:32:24;;;;;;;;;;;;;;;9.71;51.31;101882.50;5232079;28;19917;-62
2022/03/08 12:34:57;;;;;;;;;;;;;;;9.81;51.94;101885.50;5232297;28;19912;-62
2022/03/08 12:37:48;;;;;;;;;;;;;;;9.96;52.91;101880.53;5232656;28;20386;-62
2022/03/08 12:40:19;;;;;;;;;;;;;;;10.23;53.17;101880.19;5231508;28;19920;-62
2022/03/08 12:42:49;;;;;;;;;;;;;;;10.07;48.08;101874.38;5232067;28;19917;-62
2022/03/08 12:45:22;;;;;;;;;;;;;;;9.99;50.09;101869.28;5232003;28;20332;-61
2022/03/08 12:47:54;;;;;;;;;;;;;;;10.05;51.52;101872.94;5232324;28;19912;-62
2022/03/08 12:50:33;;;;;;;;;;;;;;;10.21;52.23;101868.81;5250445;28;19913;-62
2022/03/08 12:53:05;;;;;;;;;;;;;;;10.31;50.77;101855.59;5232027;28;19912;-62
2022/03/08 12:55:41;;;;;;;;;;;;;;;9.89;49.66;101774.56;5230684;28;20295;-62